Strona główna
METAR-TAF:

METAR-TAF

Lotnisko :

Pian Rosa, Włochy

Szerokość geograficzna: 45-56N, Długość geograficzna: 007-42E, wysokość: 3480 m

Aktualna obserwacja pogody

Raport powstał 1 minut temu, godzina 17:55 UTC
Wiatr 24 kt od północno-północny wschód
Temperatura -18°C
Wilgotność 34%
Ciśnienie 1006 hPa
Widzialność 10 km lub więcej
Brak chmur poniżej 1500 m i brak chmur cumulonimbus

METAR: LIMH 261755Z 03024KT CAVOK M18/M30 Q1006 RMK SKC MON LIB VAL NIL VIS MIN 9999

czas: 18:56 (17:56 UTC)


TAF: brakujący

Obserwacja i prognoza pogody dla ponad 4000 lotnisk (raport METAR i TAF).

Dostępne stacje oznaczono żółtymi i czerwonymi punktami na mapie.

Najedź kursorem aby zobaczyć nazwę stacji.

Kliknij aby zobaczyć obserwacje i prognozy pogody.

Aby zmienić mapę: kliknij na zielony przycisk z czarnym krzyżykiem, aby powiększyć; na zielony przycisk z myślnikiem, aby pomniejszyć; na zielone strzałki, aby przejść do map sąsiednich.


METAR-TAF: